createdAt,value
2023-01-24T00:03:40.107Z,49.00
2023-01-24T00:08:14.870Z,47.40
2023-01-24T00:12:44.290Z,35.90
2023-01-24T00:17:15.886Z,37.90
2023-01-24T00:21:50.774Z,46.40
2023-01-24T00:26:20.048Z,36.40
2023-01-24T00:30:30.049Z,42.50
2023-01-24T00:35:05.307Z,45.60
2023-01-24T00:39:34.764Z,46.00
2023-01-24T00:43:43.838Z,45.00
2023-01-24T00:48:16.861Z,44.70
2023-01-24T00:52:46.088Z,45.20
2023-01-24T00:57:19.221Z,44.30
2023-01-24T01:01:48.210Z,47.10
2023-01-24T01:06:17.478Z,43.00
2023-01-24T01:10:46.575Z,45.10
2023-01-24T01:15:16.104Z,20.30
2023-01-24T01:19:46.481Z,23.10
2023-01-24T01:28:55.444Z,34.30
2023-01-24T01:33:24.817Z,39.70
2023-01-24T01:37:34.802Z,42.00
2023-01-24T01:42:03.945Z,32.80
2023-01-24T01:46:15.499Z,46.70
2023-01-24T01:50:26.407Z,40.40
2023-01-24T01:54:55.706Z,37.70
2023-01-24T01:59:25.232Z,31.80
2023-01-24T02:04:00.209Z,38.30
2023-01-24T02:08:41.168Z,37.50
2023-01-24T02:12:55.253Z,36.90
2023-01-24T02:17:24.226Z,35.70
2023-01-24T02:21:53.449Z,39.90
2023-01-24T02:26:21.409Z,36.40
2023-01-24T02:30:50.802Z,36.30
2023-01-24T02:35:20.259Z,35.70
2023-01-24T02:39:49.132Z,38.30
2023-01-24T02:44:18.755Z,36.20
2023-01-24T02:48:47.737Z,35.30
2023-01-24T02:53:15.119Z,25.90
2023-01-24T02:57:42.336Z,18.10
2023-01-24T03:02:11.460Z,32.50
2023-01-24T03:06:40.821Z,24.80
2023-01-24T03:11:09.992Z,32.00
2023-01-24T03:16:36.050Z,22.80
2023-01-24T03:20:44.826Z,19.90
2023-01-24T03:25:00.075Z,24.90
2023-01-24T03:29:15.591Z,32.00
2023-01-24T03:33:43.491Z,16.70
2023-01-24T03:38:11.048Z,28.90
2023-01-24T03:42:41.127Z,24.20
2023-01-24T03:47:10.706Z,31.60
2023-01-24T03:51:38.321Z,18.90
2023-01-24T03:56:07.832Z,28.50
2023-01-24T04:00:37.158Z,19.70
2023-01-24T04:05:10.735Z,22.20
2023-01-24T04:09:36.800Z,26.70
2023-01-24T04:13:50.449Z,19.00
2023-01-24T04:18:03.580Z,21.20
2023-01-24T04:22:33.378Z,16.50
2023-01-24T04:27:02.375Z,20.00
2023-01-24T04:31:37.779Z,31.00
2023-01-24T04:36:21.620Z,28.00
2023-01-24T04:40:51.419Z,26.50
2023-01-24T04:45:02.895Z,32.30
2023-01-24T04:49:15.854Z,31.40
2023-01-24T04:53:50.879Z,23.40
2023-01-24T04:58:21.429Z,23.40
2023-01-24T05:02:50.600Z,25.40
2023-01-24T05:07:19.914Z,16.70
2023-01-24T05:11:48.581Z,18.00
2023-01-24T05:16:19.033Z,32.20
2023-01-24T05:20:48.119Z,30.40
2023-01-24T05:25:16.800Z,27.30
2023-01-24T05:29:47.793Z,22.50
2023-01-24T05:34:13.637Z,20.80
2023-01-24T05:38:42.679Z,30.30
2023-01-24T05:42:55.019Z,22.40
2023-01-24T05:47:24.392Z,15.20
2023-01-24T05:51:53.594Z,27.40
2023-01-24T05:56:24.245Z,22.10
2023-01-24T06:00:54.884Z,19.70
2023-01-24T06:05:24.587Z,20.10
2023-01-24T06:09:38.076Z,14.90
2023-01-24T06:16:47.877Z,27.70
2023-01-24T06:20:38.596Z,23.20
2023-01-24T06:24:25.471Z,34.20
2023-01-24T06:28:13.587Z,32.50
2023-01-24T06:32:03.947Z,27.70
2023-01-24T06:36:05.163Z,31.60
2023-01-24T06:39:56.536Z,37.30
2023-01-24T06:43:45.244Z,37.40
2023-01-24T06:47:33.812Z,23.50
2023-01-24T06:51:22.850Z,38.60
2023-01-24T06:54:54.633Z,37.40
2023-01-24T06:58:44.161Z,22.80
2023-01-24T07:02:29.148Z,31.90
2023-01-24T07:06:23.215Z,32.60
2023-01-24T07:10:15.434Z,28.10
2023-01-24T07:14:19.795Z,41.80
2023-01-24T07:18:34.240Z,24.70
2023-01-24T07:23:03.551Z,38.70
2023-01-24T07:27:33.083Z,19.60
2023-01-24T07:32:02.545Z,35.30
2023-01-24T07:36:42.332Z,21.60
2023-01-24T07:41:12.500Z,24.90
2023-01-24T07:45:42.341Z,28.70
2023-01-24T07:50:13.532Z,32.40
2023-01-24T07:54:43.397Z,20.00
2023-01-24T07:59:14.171Z,30.70
2023-01-24T08:03:41.454Z,29.90
2023-01-24T08:08:10.418Z,29.20
2023-01-24T08:12:21.465Z,34.50
2023-01-24T08:16:39.147Z,33.00
2023-01-24T08:21:07.380Z,34.30
2023-01-24T08:25:36.645Z,23.30
2023-01-24T08:30:05.921Z,18.30
2023-01-24T08:34:35.106Z,26.20
2023-01-24T08:39:06.674Z,22.90
2023-01-24T08:43:35.381Z,35.00
2023-01-24T08:48:04.756Z,31.00
2023-01-24T08:52:14.737Z,19.10
2023-01-24T08:56:33.123Z,28.60
2023-01-24T09:00:42.507Z,27.60
2023-01-24T09:05:14.712Z,26.80
2023-01-24T09:09:45.799Z,28.50
2023-01-24T09:16:21.322Z,25.80
2023-01-24T09:20:36.666Z,28.50
2023-01-24T09:25:06.671Z,29.20
2023-01-24T09:29:16.538Z,19.50
2023-01-24T09:33:32.263Z,37.50
2023-01-24T09:37:36.049Z,19.40
2023-01-24T09:42:26.039Z,30.60
2023-01-24T09:47:10.711Z,31.70
2023-01-24T09:51:23.094Z,20.50
2023-01-24T09:55:34.629Z,22.40
2023-01-24T10:00:24.712Z,20.90
2023-01-24T10:04:57.684Z,21.90
2023-01-24T10:09:41.932Z,31.20
2023-01-24T10:14:13.822Z,24.60
2023-01-24T10:18:50.968Z,19.30
2023-01-24T10:23:16.627Z,23.00
2023-01-24T10:27:57.990Z,19.40
2023-01-24T10:32:48.050Z,21.20
2023-01-24T10:37:32.000Z,24.40
2023-01-24T10:41:55.117Z,19.60
2023-01-24T10:46:36.384Z,29.20
2023-01-24T10:51:17.622Z,26.90
2023-01-24T10:55:30.818Z,39.10
2023-01-24T10:59:59.718Z,32.50
2023-01-24T11:04:31.375Z,30.90
2023-01-24T11:13:18.883Z,23.20
2023-01-24T11:22:21.571Z,24.90
2023-01-24T11:31:44.522Z,39.10
2023-01-24T11:36:15.940Z,17.80
2023-01-24T11:40:37.565Z,26.50
2023-01-24T11:45:14.135Z,24.60
2023-01-24T11:49:31.434Z,22.50
2023-01-24T11:54:10.476Z,34.20
2023-01-24T11:59:01.412Z,21.90
2023-01-24T12:03:35.190Z,28.50
2023-01-24T12:08:18.011Z,37.40
2023-01-24T12:12:59.649Z,34.90
2023-01-24T12:17:48.255Z,31.00
2023-01-24T12:22:14.701Z,33.50
2023-01-24T12:26:27.330Z,22.70
2023-01-24T12:30:59.708Z,24.80
2023-01-24T12:35:46.773Z,36.90
2023-01-24T12:40:22.528Z,42.60
2023-01-24T12:45:06.382Z,27.30
2023-01-24T12:53:50.931Z,21.70
2023-01-24T12:57:41.017Z,35.20
2023-01-24T13:02:35.153Z,33.00
2023-01-24T13:07:23.450Z,39.60
2023-01-24T13:11:58.521Z,20.60
2023-01-24T13:16:37.636Z,30.00
2023-01-24T13:21:28.336Z,27.80
2023-01-24T13:26:11.513Z,31.60
2023-01-24T13:30:45.556Z,18.10
2023-01-24T13:35:15.317Z,23.70
2023-01-24T13:39:46.772Z,38.60
2023-01-24T13:44:13.011Z,24.20
2023-01-24T13:48:43.063Z,23.40
2023-01-24T13:53:13.649Z,21.10
2023-01-24T14:01:54.432Z,24.00
2023-01-24T14:06:10.168Z,29.60
2023-01-24T14:10:44.380Z,24.00
2023-01-24T14:15:06.719Z,18.70
2023-01-24T14:19:49.727Z,27.60
2023-01-24T14:24:22.932Z,24.00
2023-01-24T14:28:55.844Z,37.80
2023-01-24T14:33:30.946Z,33.40
2023-01-24T14:38:00.382Z,36.90
2023-01-24T14:42:36.521Z,29.40
2023-01-24T14:47:15.279Z,31.60
2023-01-24T14:51:48.237Z,22.70
2023-01-24T14:56:19.540Z,20.00
2023-01-24T15:00:49.083Z,23.50
2023-01-24T15:04:38.332Z,29.60
2023-01-24T15:08:13.290Z,28.80
2023-01-24T15:11:51.191Z,31.80
2023-01-24T15:15:42.111Z,37.20
2023-01-24T15:19:33.675Z,29.40
2023-01-24T15:23:15.101Z,35.60
2023-01-24T15:27:46.991Z,41.30
2023-01-24T15:32:16.989Z,47.30
2023-01-24T15:36:28.590Z,42.90
2023-01-24T15:41:01.150Z,51.50
2023-01-24T15:45:31.845Z,55.20
2023-01-24T15:50:01.792Z,51.20
2023-01-24T15:54:31.226Z,35.10
2023-01-24T15:59:01.170Z,34.40
2023-01-24T16:03:34.531Z,29.50
2023-01-24T16:08:07.019Z,28.10
2023-01-24T16:12:37.094Z,28.60
2023-01-24T16:17:12.350Z,33.60
2023-01-24T16:21:42.328Z,33.70
2023-01-24T16:26:14.851Z,37.50
2023-01-24T16:30:44.452Z,32.20
2023-01-24T16:37:23.588Z,34.20
2023-01-24T16:39:45.719Z,35.00
2023-01-24T16:44:19.985Z,31.00
2023-01-24T16:48:35.733Z,36.20
2023-01-24T16:53:07.170Z,31.90
2023-01-24T16:57:38.888Z,36.20
2023-01-24T17:02:09.653Z,37.30
2023-01-24T17:06:23.132Z,39.60
2023-01-24T17:10:59.703Z,33.80
2023-01-24T17:15:29.594Z,32.50
2023-01-24T17:19:42.119Z,39.40
2023-01-24T17:24:14.908Z,45.10
2023-01-24T17:28:25.019Z,47.80
2023-01-24T17:32:56.742Z,45.90
2023-01-24T17:37:26.476Z,51.70
2023-01-24T17:47:49.011Z,40.80
2023-01-24T17:52:23.855Z,49.70
2023-01-24T17:56:49.389Z,56.50
2023-01-24T18:05:48.137Z,53.00
2023-01-24T18:10:17.703Z,47.10
2023-01-24T18:14:29.462Z,36.70
2023-01-24T18:19:00.727Z,38.10
2023-01-24T18:23:21.796Z,40.60
2023-01-24T18:27:51.986Z,46.40
2023-01-24T18:32:02.365Z,63.60
2023-01-24T18:36:32.179Z,50.90
2023-01-24T18:40:43.382Z,50.00
2023-01-24T18:45:14.067Z,72.10
2023-01-24T18:49:46.337Z,56.00
2023-01-24T18:54:19.767Z,47.00
2023-01-24T18:58:49.748Z,46.10
2023-01-24T19:09:01.735Z,41.30
2023-01-24T19:17:06.798Z,50.00
2023-01-24T19:25:15.460Z,55.60
2023-01-24T19:29:06.139Z,55.50
2023-01-24T19:32:47.881Z,48.30
2023-01-24T19:36:38.071Z,49.70
2023-01-24T19:40:04.588Z,51.70
2023-01-24T19:44:18.542Z,46.90
2023-01-24T19:48:01.836Z,54.30
2023-01-24T19:51:53.379Z,56.10
2023-01-24T19:55:30.167Z,48.30
2023-01-24T19:59:02.669Z,48.60
2023-01-24T20:02:53.848Z,54.20
2023-01-24T20:06:35.302Z,47.40
2023-01-24T20:10:18.547Z,51.40
2023-01-24T20:13:50.300Z,51.00
2023-01-24T20:17:33.139Z,56.50
2023-01-24T20:21:30.371Z,61.70
2023-01-24T20:25:22.463Z,54.80
2023-01-24T20:29:08.089Z,49.00
2023-01-24T20:32:46.568Z,47.80
2023-01-24T20:36:39.541Z,52.40
2023-01-24T20:40:05.653Z,49.10
2023-01-24T20:43:42.230Z,51.10
2023-01-24T20:47:35.318Z,52.00
2023-01-24T20:51:22.943Z,53.60
2023-01-24T20:55:12.349Z,50.70
2023-01-24T20:59:00.541Z,59.70
2023-01-24T21:02:52.042Z,55.90
2023-01-24T21:06:45.002Z,50.70
2023-01-24T21:10:25.783Z,42.20
2023-01-24T21:14:09.147Z,46.10
2023-01-24T21:17:53.734Z,48.90
2023-01-24T21:21:36.041Z,48.60
2023-01-24T21:25:18.587Z,41.80
2023-01-24T21:29:06.205Z,43.40
2023-01-24T21:32:56.610Z,44.30
2023-01-24T21:36:37.702Z,46.40
2023-01-24T21:40:27.116Z,47.30
2023-01-24T21:44:16.171Z,46.20
2023-01-24T21:47:55.487Z,49.60
2023-01-24T21:51:45.566Z,50.00
2023-01-24T21:55:20.138Z,46.80
2023-01-24T21:59:10.107Z,44.10
2023-01-24T22:02:53.357Z,50.80
2023-01-24T22:06:42.929Z,54.90
2023-01-24T22:10:20.912Z,48.20
2023-01-24T22:13:52.378Z,45.50
2023-01-24T22:17:44.584Z,50.10
2023-01-24T22:21:34.071Z,54.70
2023-01-24T22:25:43.521Z,53.50
2023-01-24T22:29:33.035Z,56.30
2023-01-24T22:33:16.738Z,51.10
2023-01-24T22:37:06.056Z,52.40
2023-01-24T22:40:55.509Z,55.30
2023-01-24T22:44:45.539Z,51.10
2023-01-24T22:48:35.508Z,54.40
2023-01-24T22:52:25.273Z,47.50
2023-01-24T22:56:14.616Z,49.00
2023-01-24T23:00:05.375Z,49.40
2023-01-24T23:03:53.435Z,47.10
2023-01-24T23:07:42.310Z,51.10
2023-01-24T23:11:31.709Z,47.70
2023-01-24T23:15:20.182Z,47.50
2023-01-24T23:19:08.275Z,53.40
